sensor_id;sensor_type;location;lat;lon;timestamp;P1;durP1;ratioP1;P2;durP2;ratioP2
76063;SDS011;64762;52.006;8.424;2024-03-29T00:01:00;6.33;;;1.00;;
76063;SDS011;64762;52.006;8.424;2024-03-29T00:03:27;8.35;;;1.63;;
76063;SDS011;64762;52.006;8.424;2024-03-29T00:05:52;6.27;;;2.00;;
76063;SDS011;64762;52.006;8.424;2024-03-29T00:08:17;7.40;;;2.27;;
76063;SDS011;64762;52.006;8.424;2024-03-29T00:10:42;4.00;;;1.17;;
76063;SDS011;64762;52.006;8.424;2024-03-29T00:13:08;5.63;;;1.20;;
76063;SDS011;64762;52.006;8.424;2024-03-29T00:15:33;5.17;;;0.70;;
76063;SDS011;64762;52.006;8.424;2024-03-29T00:17:59;5.15;;;1.15;;
76063;SDS011;64762;52.006;8.424;2024-03-29T00:20:24;8.55;;;2.25;;
76063;SDS011;64762;52.006;8.424;2024-03-29T00:22:49;3.97;;;1.57;;
76063;SDS011;64762;52.006;8.424;2024-03-29T00:25:15;5.43;;;1.70;;
76063;SDS011;64762;52.006;8.424;2024-03-29T00:27:40;3.73;;;1.50;;
76063;SDS011;64762;52.006;8.424;2024-03-29T00:30:05;3.87;;;1.20;;
76063;SDS011;64762;52.006;8.424;2024-03-29T00:32:31;4.28;;;1.42;;
76063;SDS011;64762;52.006;8.424;2024-03-29T00:34:56;2.83;;;1.10;;
76063;SDS011;64762;52.006;8.424;2024-03-29T00:37:23;3.33;;;0.95;;
76063;SDS011;64762;52.006;8.424;2024-03-29T00:39:48;5.60;;;1.50;;
76063;SDS011;64762;52.006;8.424;2024-03-29T00:42:14;7.25;;;1.20;;
76063;SDS011;64762;52.006;8.424;2024-03-29T00:44:40;4.40;;;0.90;;
76063;SDS011;64762;52.006;8.424;2024-03-29T00:47:06;4.63;;;1.30;;
76063;SDS011;64762;52.006;8.424;2024-03-29T00:49:31;2.90;;;0.90;;
76063;SDS011;64762;52.006;8.424;2024-03-29T00:51:56;5.10;;;1.30;;
76063;SDS011;64762;52.006;8.424;2024-03-29T00:54:22;2.90;;;1.00;;
76063;SDS011;64762;52.006;8.424;2024-03-29T00:56:48;5.13;;;1.17;;
76063;SDS011;64762;52.006;8.424;2024-03-29T00:59:14;4.50;;;1.30;;
76063;SDS011;64762;52.006;8.424;2024-03-29T01:01:39;4.40;;;1.17;;
76063;SDS011;64762;52.006;8.424;2024-03-29T01:04:05;5.73;;;1.20;;
76063;SDS011;64762;52.006;8.424;2024-03-29T01:06:30;5.00;;;1.20;;
76063;SDS011;64762;52.006;8.424;2024-03-29T01:08:55;4.90;;;1.20;;
76063;SDS011;64762;52.006;8.424;2024-03-29T01:11:21;5.38;;;1.73;;
76063;SDS011;64762;52.006;8.424;2024-03-29T01:13:47;4.30;;;1.20;;
76063;SDS011;64762;52.006;8.424;2024-03-29T01:16:12;3.63;;;1.00;;
76063;SDS011;64762;52.006;8.424;2024-03-29T01:18:37;5.90;;;1.47;;
76063;SDS011;64762;52.006;8.424;2024-03-29T01:21:03;5.88;;;1.17;;
76063;SDS011;64762;52.006;8.424;2024-03-29T01:23:29;4.07;;;1.10;;
76063;SDS011;64762;52.006;8.424;2024-03-29T01:25:54;5.03;;;1.10;;
76063;SDS011;64762;52.006;8.424;2024-03-29T01:28:19;4.30;;;1.13;;
76063;SDS011;64762;52.006;8.424;2024-03-29T01:30:51;6.43;;;1.20;;
76063;SDS011;64762;52.006;8.424;2024-03-29T01:33:17;5.63;;;1.40;;
76063;SDS011;64762;52.006;8.424;2024-03-29T01:35:42;3.87;;;0.90;;
76063;SDS011;64762;52.006;8.424;2024-03-29T01:38:07;2.80;;;0.90;;
76063;SDS011;64762;52.006;8.424;2024-03-29T01:40:32;2.47;;;0.80;;
76063;SDS011;64762;52.006;8.424;2024-03-29T01:42:58;5.10;;;0.77;;
76063;SDS011;64762;52.006;8.424;2024-03-29T01:45:25;4.07;;;1.20;;
76063;SDS011;64762;52.006;8.424;2024-03-29T01:47:51;3.00;;;0.70;;
76063;SDS011;64762;52.006;8.424;2024-03-29T01:50:16;1.98;;;0.52;;
76063;SDS011;64762;52.006;8.424;2024-03-29T01:52:41;2.77;;;0.70;;
76063;SDS011;64762;52.006;8.424;2024-03-29T01:55:07;3.22;;;0.70;;
76063;SDS011;64762;52.006;8.424;2024-03-29T01:57:32;6.07;;;0.75;;
76063;SDS011;64762;52.006;8.424;2024-03-29T01:59:58;2.93;;;0.53;;
76063;SDS011;64762;52.006;8.424;2024-03-29T02:02:23;2.63;;;0.60;;
76063;SDS011;64762;52.006;8.424;2024-03-29T02:04:49;1.75;;;0.75;;
76063;SDS011;64762;52.006;8.424;2024-03-29T02:07:14;2.65;;;0.50;;
76063;SDS011;64762;52.006;8.424;2024-03-29T02:09:40;2.20;;;0.55;;
76063;SDS011;64762;52.006;8.424;2024-03-29T02:12:05;1.90;;;0.53;;
76063;SDS011;64762;52.006;8.424;2024-03-29T02:14:31;4.22;;;0.65;;
76063;SDS011;64762;52.006;8.424;2024-03-29T02:16:56;5.80;;;0.77;;
76063;SDS011;64762;52.006;8.424;2024-03-29T02:19:22;4.13;;;0.60;;
76063;SDS011;64762;52.006;8.424;2024-03-29T02:21:47;2.67;;;0.60;;
76063;SDS011;64762;52.006;8.424;2024-03-29T02:24:13;4.93;;;0.60;;
76063;SDS011;64762;52.006;8.424;2024-03-29T02:26:41;4.30;;;0.70;;
76063;SDS011;64762;52.006;8.424;2024-03-29T02:29:07;1.23;;;0.40;;
76063;SDS011;64762;52.006;8.424;2024-03-29T02:31:34;3.95;;;0.80;;
76063;SDS011;64762;52.006;8.424;2024-03-29T02:33:59;4.20;;;0.60;;
76063;SDS011;64762;52.006;8.424;2024-03-29T02:36:24;3.23;;;0.93;;
76063;SDS011;64762;52.006;8.424;2024-03-29T02:38:49;3.60;;;0.90;;
76063;SDS011;64762;52.006;8.424;2024-03-29T02:41:15;3.50;;;0.60;;
76063;SDS011;64762;52.006;8.424;2024-03-29T02:43:40;2.53;;;0.53;;
76063;SDS011;64762;52.006;8.424;2024-03-29T02:46:05;3.63;;;0.60;;
76063;SDS011;64762;52.006;8.424;2024-03-29T02:48:31;2.33;;;0.67;;
76063;SDS011;64762;52.006;8.424;2024-03-29T02:50:56;2.63;;;0.67;;
76063;SDS011;64762;52.006;8.424;2024-03-29T02:53:21;2.25;;;0.52;;
76063;SDS011;64762;52.006;8.424;2024-03-29T02:55:47;4.30;;;1.67;;
76063;SDS011;64762;52.006;8.424;2024-03-29T02:58:12;1.43;;;0.60;;
76063;SDS011;64762;52.006;8.424;2024-03-29T03:00:37;6.43;;;0.60;;
76063;SDS011;64762;52.006;8.424;2024-03-29T03:03:02;1.37;;;0.37;;
76063;SDS011;64762;52.006;8.424;2024-03-29T03:05:29;7.67;;;0.70;;
76063;SDS011;64762;52.006;8.424;2024-03-29T03:07:54;1.92;;;0.70;;
76063;SDS011;64762;52.006;8.424;2024-03-29T03:10:44;2.63;;;0.52;;
76063;SDS011;64762;52.006;8.424;2024-03-29T03:13:24;1.98;;;0.65;;
76063;SDS011;64762;52.006;8.424;2024-03-29T03:15:50;3.88;;;0.93;;
76063;SDS011;64762;52.006;8.424;2024-03-29T03:18:15;1.63;;;0.67;;
76063;SDS011;64762;52.006;8.424;2024-03-29T03:20:41;4.73;;;0.70;;
76063;SDS011;64762;52.006;8.424;2024-03-29T03:23:06;2.73;;;0.60;;
76063;SDS011;64762;52.006;8.424;2024-03-29T03:25:32;2.13;;;0.60;;
76063;SDS011;64762;52.006;8.424;2024-03-29T03:27:57;4.03;;;0.70;;
76063;SDS011;64762;52.006;8.424;2024-03-29T03:30:22;2.53;;;0.43;;
76063;SDS011;64762;52.006;8.424;2024-03-29T03:32:48;2.60;;;1.07;;
76063;SDS011;64762;52.006;8.424;2024-03-29T03:35:13;3.03;;;0.80;;
76063;SDS011;64762;52.006;8.424;2024-03-29T03:37:39;4.50;;;0.85;;
76063;SDS011;64762;52.006;8.424;2024-03-29T03:40:04;3.80;;;1.10;;
76063;SDS011;64762;52.006;8.424;2024-03-29T03:42:31;2.92;;;0.70;;
76063;SDS011;64762;52.006;8.424;2024-03-29T03:44:56;2.10;;;0.57;;
76063;SDS011;64762;52.006;8.424;2024-03-29T03:47:21;2.93;;;0.73;;
76063;SDS011;64762;52.006;8.424;2024-03-29T03:49:46;2.40;;;0.67;;
76063;SDS011;64762;52.006;8.424;2024-03-29T03:52:12;4.50;;;0.97;;
76063;SDS011;64762;52.006;8.424;2024-03-29T03:54:37;4.50;;;1.00;;
76063;SDS011;64762;52.006;8.424;2024-03-29T03:57:02;1.33;;;0.53;;
76063;SDS011;64762;52.006;8.424;2024-03-29T03:59:29;2.70;;;0.60;;
76063;SDS011;64762;52.006;8.424;2024-03-29T04:01:54;3.53;;;0.70;;
76063;SDS011;64762;52.006;8.424;2024-03-29T04:04:19;4.20;;;0.90;;
76063;SDS011;64762;52.006;8.424;2024-03-29T04:06:44;2.03;;;0.70;;
76063;SDS011;64762;52.006;8.424;2024-03-29T04:09:10;5.63;;;0.80;;
76063;SDS011;64762;52.006;8.424;2024-03-29T04:11:36;2.63;;;0.77;;
76063;SDS011;64762;52.006;8.424;2024-03-29T04:14:01;2.70;;;0.60;;
76063;SDS011;64762;52.006;8.424;2024-03-29T04:16:26;3.50;;;0.70;;
76063;SDS011;64762;52.006;8.424;2024-03-29T04:18:51;2.20;;;0.60;;
76063;SDS011;64762;52.006;8.424;2024-03-29T04:21:17;2.90;;;0.80;;
76063;SDS011;64762;52.006;8.424;2024-03-29T04:23:42;1.43;;;0.30;;
76063;SDS011;64762;52.006;8.424;2024-03-29T04:26:07;11.27;;;0.80;;
76063;SDS011;64762;52.006;8.424;2024-03-29T04:28:32;3.83;;;1.13;;
76063;SDS011;64762;52.006;8.424;2024-03-29T04:30:58;4.33;;;1.00;;
76063;SDS011;64762;52.006;8.424;2024-03-29T04:33:24;2.50;;;0.90;;
76063;SDS011;64762;52.006;8.424;2024-03-29T04:36:00;2.60;;;0.60;;
76063;SDS011;64762;52.006;8.424;2024-03-29T04:38:27;2.85;;;0.93;;
76063;SDS011;64762;52.006;8.424;2024-03-29T04:40:54;2.90;;;1.02;;
76063;SDS011;64762;52.006;8.424;2024-03-29T04:43:21;5.65;;;1.17;;
76063;SDS011;64762;52.006;8.424;2024-03-29T04:45:47;3.72;;;0.90;;
76063;SDS011;64762;52.006;8.424;2024-03-29T04:48:12;3.23;;;0.90;;
76063;SDS011;64762;52.006;8.424;2024-03-29T04:50:37;3.97;;;0.77;;
76063;SDS011;64762;52.006;8.424;2024-03-29T04:53:03;2.05;;;0.70;;
76063;SDS011;64762;52.006;8.424;2024-03-29T04:55:29;2.95;;;1.05;;
76063;SDS011;64762;52.006;8.424;2024-03-29T04:57:54;2.03;;;0.80;;
76063;SDS011;64762;52.006;8.424;2024-03-29T05:00:19;2.77;;;0.77;;
76063;SDS011;64762;52.006;8.424;2024-03-29T05:02:45;3.03;;;0.83;;
76063;SDS011;64762;52.006;8.424;2024-03-29T05:05:10;3.47;;;0.90;;
76063;SDS011;64762;52.006;8.424;2024-03-29T05:07:35;6.80;;;0.85;;
76063;SDS011;64762;52.006;8.424;2024-03-29T05:10:01;5.00;;;0.50;;
76063;SDS011;64762;52.006;8.424;2024-03-29T05:12:28;3.90;;;0.80;;
76063;SDS011;64762;52.006;8.424;2024-03-29T05:14:53;3.40;;;0.70;;
76063;SDS011;64762;52.006;8.424;2024-03-29T05:17:19;1.43;;;0.53;;
76063;SDS011;64762;52.006;8.424;2024-03-29T05:19:50;2.08;;;0.57;;
76063;SDS011;64762;52.006;8.424;2024-03-29T05:22:15;1.67;;;0.77;;
76063;SDS011;64762;52.006;8.424;2024-03-29T05:24:40;2.67;;;1.07;;
76063;SDS011;64762;52.006;8.424;2024-03-29T05:27:06;4.70;;;0.80;;
76063;SDS011;64762;52.006;8.424;2024-03-29T05:29:31;1.60;;;0.50;;
76063;SDS011;64762;52.006;8.424;2024-03-29T05:31:56;2.17;;;0.73;;
76063;SDS011;64762;52.006;8.424;2024-03-29T05:34:22;2.07;;;0.73;;
76063;SDS011;64762;52.006;8.424;2024-03-29T05:36:47;2.73;;;0.70;;
76063;SDS011;64762;52.006;8.424;2024-03-29T05:39:12;2.87;;;0.83;;
76063;SDS011;64762;52.006;8.424;2024-03-29T05:41:38;2.77;;;0.97;;
76063;SDS011;64762;52.006;8.424;2024-03-29T05:44:03;6.10;;;1.30;;
76063;SDS011;64762;52.006;8.424;2024-03-29T05:46:28;4.53;;;1.70;;
76063;SDS011;64762;52.006;8.424;2024-03-29T05:48:54;3.27;;;1.23;;
76063;SDS011;64762;52.006;8.424;2024-03-29T05:51:19;4.90;;;1.20;;
76063;SDS011;64762;52.006;8.424;2024-03-29T05:53:44;5.53;;;1.77;;
76063;SDS011;64762;52.006;8.424;2024-03-29T05:56:10;3.73;;;1.87;;
76063;SDS011;64762;52.006;8.424;2024-03-29T05:58:36;4.63;;;1.73;;
76063;SDS011;64762;52.006;8.424;2024-03-29T06:01:01;4.33;;;1.23;;
76063;SDS011;64762;52.006;8.424;2024-03-29T06:03:27;2.63;;;1.00;;
76063;SDS011;64762;52.006;8.424;2024-03-29T06:05:54;3.17;;;1.35;;
76063;SDS011;64762;52.006;8.424;2024-03-29T06:08:20;3.65;;;1.25;;
76063;SDS011;64762;52.006;8.424;2024-03-29T06:10:46;3.72;;;1.25;;
76063;SDS011;64762;52.006;8.424;2024-03-29T06:13:11;5.30;;;1.10;;
76063;SDS011;64762;52.006;8.424;2024-03-29T06:15:53;2.08;;;0.80;;
76063;SDS011;64762;52.006;8.424;2024-03-29T06:18:36;3.67;;;1.30;;
76063;SDS011;64762;52.006;8.424;2024-03-29T06:21:02;4.80;;;1.20;;
76063;SDS011;64762;52.006;8.424;2024-03-29T06:23:27;4.23;;;1.07;;
76063;SDS011;64762;52.006;8.424;2024-03-29T06:25:52;3.40;;;0.97;;
76063;SDS011;64762;52.006;8.424;2024-03-29T06:28:18;6.10;;;1.27;;
76063;SDS011;64762;52.006;8.424;2024-03-29T06:30:43;4.37;;;0.83;;
76063;SDS011;64762;52.006;8.424;2024-03-29T06:33:08;5.60;;;0.87;;
76063;SDS011;64762;52.006;8.424;2024-03-29T06:35:34;1.67;;;0.70;;
76063;SDS011;64762;52.006;8.424;2024-03-29T06:37:59;4.27;;;0.87;;
76063;SDS011;64762;52.006;8.424;2024-03-29T06:40:25;5.20;;;0.90;;
76063;SDS011;64762;52.006;8.424;2024-03-29T06:42:50;2.13;;;0.87;;
76063;SDS011;64762;52.006;8.424;2024-03-29T06:45:16;3.45;;;0.90;;
76063;SDS011;64762;52.006;8.424;2024-03-29T06:47:41;2.83;;;0.80;;
76063;SDS011;64762;52.006;8.424;2024-03-29T06:50:06;2.67;;;0.50;;
76063;SDS011;64762;52.006;8.424;2024-03-29T06:52:32;2.47;;;1.10;;
76063;SDS011;64762;52.006;8.424;2024-03-29T06:54:57;3.53;;;0.80;;
76063;SDS011;64762;52.006;8.424;2024-03-29T06:57:23;4.13;;;1.03;;
76063;SDS011;64762;52.006;8.424;2024-03-29T06:59:50;4.10;;;0.80;;
76063;SDS011;64762;52.006;8.424;2024-03-29T07:02:15;4.93;;;1.00;;
76063;SDS011;64762;52.006;8.424;2024-03-29T07:04:41;2.67;;;0.90;;
76063;SDS011;64762;52.006;8.424;2024-03-29T07:07:06;4.00;;;0.83;;
76063;SDS011;64762;52.006;8.424;2024-03-29T07:09:31;2.88;;;1.10;;
76063;SDS011;64762;52.006;8.424;2024-03-29T07:11:57;3.50;;;0.97;;
76063;SDS011;64762;52.006;8.424;2024-03-29T07:14:23;2.50;;;0.70;;
76063;SDS011;64762;52.006;8.424;2024-03-29T07:16:51;5.97;;;1.10;;
76063;SDS011;64762;52.006;8.424;2024-03-29T07:19:16;3.15;;;1.00;;
76063;SDS011;64762;52.006;8.424;2024-03-29T07:21:45;2.73;;;0.90;;
76063;SDS011;64762;52.006;8.424;2024-03-29T07:24:11;3.85;;;0.90;;
76063;SDS011;64762;52.006;8.424;2024-03-29T07:26:37;6.05;;;0.93;;
76063;SDS011;64762;52.006;8.424;2024-03-29T07:29:02;3.60;;;1.08;;
76063;SDS011;64762;52.006;8.424;2024-03-29T07:31:30;2.22;;;0.70;;
76063;SDS011;64762;52.006;8.424;2024-03-29T07:33:56;2.83;;;0.90;;
76063;SDS011;64762;52.006;8.424;2024-03-29T07:36:22;4.05;;;1.63;;
76063;SDS011;64762;52.006;8.424;2024-03-29T07:38:50;7.85;;;1.23;;
76063;SDS011;64762;52.006;8.424;2024-03-29T07:41:15;4.33;;;0.90;;
76063;SDS011;64762;52.006;8.424;2024-03-29T07:43:41;2.90;;;0.80;;
76063;SDS011;64762;52.006;8.424;2024-03-29T07:46:17;4.45;;;0.90;;
76063;SDS011;64762;52.006;8.424;2024-03-29T07:48:42;2.03;;;0.67;;
76063;SDS011;64762;52.006;8.424;2024-03-29T07:51:08;2.97;;;0.90;;
76063;SDS011;64762;52.006;8.424;2024-03-29T07:53:33;3.27;;;1.00;;
76063;SDS011;64762;52.006;8.424;2024-03-29T07:55:58;3.63;;;1.07;;
76063;SDS011;64762;52.006;8.424;2024-03-29T07:58:24;3.67;;;1.02;;
76063;SDS011;64762;52.006;8.424;2024-03-29T08:00:51;4.50;;;0.83;;
76063;SDS011;64762;52.006;8.424;2024-03-29T08:03:16;1.75;;;0.80;;
76063;SDS011;64762;52.006;8.424;2024-03-29T08:05:42;6.10;;;1.30;;
76063;SDS011;64762;52.006;8.424;2024-03-29T08:08:07;3.13;;;0.90;;
76063;SDS011;64762;52.006;8.424;2024-03-29T08:10:32;3.33;;;0.80;;
76063;SDS011;64762;52.006;8.424;2024-03-29T08:12:58;2.33;;;0.70;;
76063;SDS011;64762;52.006;8.424;2024-03-29T08:15:25;3.80;;;0.98;;
76063;SDS011;64762;52.006;8.424;2024-03-29T08:17:51;3.33;;;0.90;;
76063;SDS011;64762;52.006;8.424;2024-03-29T08:20:16;3.97;;;1.77;;
76063;SDS011;64762;52.006;8.424;2024-03-29T08:22:41;2.00;;;0.80;;
76063;SDS011;64762;52.006;8.424;2024-03-29T08:25:07;2.20;;;0.87;;
76063;SDS011;64762;52.006;8.424;2024-03-29T08:27:33;4.18;;;0.80;;
76063;SDS011;64762;52.006;8.424;2024-03-29T08:29:59;3.08;;;1.17;;
76063;SDS011;64762;52.006;8.424;2024-03-29T08:32:24;4.13;;;1.10;;
76063;SDS011;64762;52.006;8.424;2024-03-29T08:34:50;2.90;;;0.80;;
76063;SDS011;64762;52.006;8.424;2024-03-29T08:37:17;2.20;;;0.80;;
76063;SDS011;64762;52.006;8.424;2024-03-29T08:39:42;3.80;;;0.93;;
76063;SDS011;64762;52.006;8.424;2024-03-29T08:42:08;1.57;;;0.77;;
76063;SDS011;64762;52.006;8.424;2024-03-29T08:44:36;3.40;;;0.88;;
76063;SDS011;64762;52.006;8.424;2024-03-29T08:47:01;2.58;;;0.93;;
76063;SDS011;64762;52.006;8.424;2024-03-29T08:49:28;4.57;;;1.10;;
76063;SDS011;64762;52.006;8.424;2024-03-29T08:51:53;3.47;;;1.02;;
76063;SDS011;64762;52.006;8.424;2024-03-29T08:54:18;2.07;;;1.00;;
76063;SDS011;64762;52.006;8.424;2024-03-29T08:56:45;2.57;;;1.10;;
76063;SDS011;64762;52.006;8.424;2024-03-29T08:59:10;2.30;;;0.90;;
76063;SDS011;64762;52.006;8.424;2024-03-29T09:01:36;2.65;;;1.10;;
76063;SDS011;64762;52.006;8.424;2024-03-29T09:04:03;4.38;;;1.40;;
76063;SDS011;64762;52.006;8.424;2024-03-29T09:06:31;3.85;;;1.25;;
76063;SDS011;64762;52.006;8.424;2024-03-29T09:08:57;6.33;;;1.27;;
76063;SDS011;64762;52.006;8.424;2024-03-29T09:11:23;4.60;;;1.33;;
76063;SDS011;64762;52.006;8.424;2024-03-29T09:13:48;3.35;;;1.10;;
76063;SDS011;64762;52.006;8.424;2024-03-29T09:16:14;2.73;;;1.03;;
76063;SDS011;64762;52.006;8.424;2024-03-29T09:18:39;2.80;;;1.10;;
76063;SDS011;64762;52.006;8.424;2024-03-29T09:21:04;3.37;;;1.03;;
76063;SDS011;64762;52.006;8.424;2024-03-29T09:23:30;3.83;;;1.02;;
76063;SDS011;64762;52.006;8.424;2024-03-29T09:25:58;4.40;;;1.03;;
76063;SDS011;64762;52.006;8.424;2024-03-29T09:28:23;2.35;;;1.10;;
76063;SDS011;64762;52.006;8.424;2024-03-29T09:30:49;5.88;;;1.35;;
76063;SDS011;64762;52.006;8.424;2024-03-29T09:33:15;5.38;;;1.48;;
76063;SDS011;64762;52.006;8.424;2024-03-29T09:35:40;3.75;;;1.33;;
76063;SDS011;64762;52.006;8.424;2024-03-29T09:38:06;6.10;;;1.70;;
76063;SDS011;64762;52.006;8.424;2024-03-29T09:40:33;8.40;;;1.40;;
76063;SDS011;64762;52.006;8.424;2024-03-29T09:42:59;5.28;;;1.70;;
76063;SDS011;64762;52.006;8.424;2024-03-29T09:45:36;11.48;;;2.42;;
76063;SDS011;64762;52.006;8.424;2024-03-29T09:48:05;7.70;;;1.90;;
76063;SDS011;64762;52.006;8.424;2024-03-29T09:50:33;6.57;;;1.92;;
76063;SDS011;64762;52.006;8.424;2024-03-29T09:53:00;6.10;;;1.90;;
76063;SDS011;64762;52.006;8.424;2024-03-29T09:55:26;6.38;;;1.92;;
76063;SDS011;64762;52.006;8.424;2024-03-29T09:57:53;5.32;;;1.85;;
76063;SDS011;64762;52.006;8.424;2024-03-29T10:00:18;6.93;;;1.67;;
76063;SDS011;64762;52.006;8.424;2024-03-29T10:02:43;7.30;;;2.00;;
76063;SDS011;64762;52.006;8.424;2024-03-29T10:05:09;3.78;;;1.75;;
76063;SDS011;64762;52.006;8.424;2024-03-29T10:07:36;6.68;;;1.70;;
76063;SDS011;64762;52.006;8.424;2024-03-29T10:10:02;7.90;;;2.42;;
76063;SDS011;64762;52.006;8.424;2024-03-29T10:12:28;5.88;;;1.70;;
76063;SDS011;64762;52.006;8.424;2024-03-29T10:14:54;4.15;;;1.40;;
76063;SDS011;64762;52.006;8.424;2024-03-29T10:17:33;5.55;;;1.70;;
76063;SDS011;64762;52.006;8.424;2024-03-29T10:20:02;4.07;;;1.35;;
76063;SDS011;64762;52.006;8.424;2024-03-29T10:22:28;4.00;;;1.40;;
76063;SDS011;64762;52.006;8.424;2024-03-29T10:24:54;3.65;;;1.10;;
76063;SDS011;64762;52.006;8.424;2024-03-29T10:27:19;3.60;;;1.40;;
76063;SDS011;64762;52.006;8.424;2024-03-29T10:29:44;4.43;;;1.23;;
76063;SDS011;64762;52.006;8.424;2024-03-29T10:32:10;3.23;;;0.97;;
76063;SDS011;64762;52.006;8.424;2024-03-29T10:34:35;3.17;;;0.90;;
76063;SDS011;64762;52.006;8.424;2024-03-29T10:37:04;2.88;;;1.10;;
76063;SDS011;64762;52.006;8.424;2024-03-29T10:39:30;2.45;;;0.90;;
76063;SDS011;64762;52.006;8.424;2024-03-29T10:41:56;2.92;;;0.70;;
76063;SDS011;64762;52.006;8.424;2024-03-29T10:44:22;2.20;;;0.80;;
76063;SDS011;64762;52.006;8.424;2024-03-29T10:46:48;2.10;;;0.70;;
76063;SDS011;64762;52.006;8.424;2024-03-29T10:49:15;2.90;;;0.75;;
76063;SDS011;64762;52.006;8.424;2024-03-29T10:51:42;3.10;;;0.70;;
76063;SDS011;64762;52.006;8.424;2024-03-29T10:54:08;2.03;;;0.82;;
76063;SDS011;64762;52.006;8.424;2024-03-29T10:56:35;3.35;;;0.80;;
76063;SDS011;64762;52.006;8.424;2024-03-29T11:01:59;2.80;;;0.88;;
76063;SDS011;64762;52.006;8.424;2024-03-29T11:04:29;3.72;;;1.10;;
76063;SDS011;64762;52.006;8.424;2024-03-29T11:06:59;3.42;;;1.08;;
76063;SDS011;64762;52.006;8.424;2024-03-29T11:09:27;2.90;;;1.20;;
76063;SDS011;64762;52.006;8.424;2024-03-29T11:11:54;2.55;;;1.00;;
76063;SDS011;64762;52.006;8.424;2024-03-29T11:14:23;1.85;;;0.80;;
76063;SDS011;64762;52.006;8.424;2024-03-29T11:16:51;2.53;;;0.60;;
76063;SDS011;64762;52.006;8.424;2024-03-29T11:19:20;2.95;;;0.90;;
76063;SDS011;64762;52.006;8.424;2024-03-29T11:21:45;1.92;;;0.80;;
76063;SDS011;64762;52.006;8.424;2024-03-29T11:24:13;2.40;;;0.70;;
76063;SDS011;64762;52.006;8.424;2024-03-29T11:26:38;3.67;;;0.70;;
76063;SDS011;64762;52.006;8.424;2024-03-29T11:29:04;3.27;;;0.90;;
76063;SDS011;64762;52.006;8.424;2024-03-29T11:31:29;2.23;;;0.77;;
76063;SDS011;64762;52.006;8.424;2024-03-29T11:33:57;1.88;;;0.73;;
76063;SDS011;64762;52.006;8.424;2024-03-29T11:36:23;1.83;;;0.60;;
76063;SDS011;64762;52.006;8.424;2024-03-29T11:38:53;2.45;;;0.80;;
76063;SDS011;64762;52.006;8.424;2024-03-29T11:41:20;3.17;;;0.80;;
76063;SDS011;64762;52.006;8.424;2024-03-29T11:43:48;1.63;;;0.60;;
76063;SDS011;64762;52.006;8.424;2024-03-29T11:46:14;2.33;;;0.80;;
76063;SDS011;64762;52.006;8.424;2024-03-29T11:48:40;1.90;;;0.70;;
76063;SDS011;64762;52.006;8.424;2024-03-29T11:51:06;2.30;;;0.57;;
76063;SDS011;64762;52.006;8.424;2024-03-29T11:53:34;2.53;;;0.75;;
76063;SDS011;64762;52.006;8.424;2024-03-29T11:56:00;1.33;;;0.60;;
76063;SDS011;64762;52.006;8.424;2024-03-29T11:58:27;1.67;;;0.70;;
76063;SDS011;64762;52.006;8.424;2024-03-29T12:00:53;2.80;;;0.75;;
76063;SDS011;64762;52.006;8.424;2024-03-29T12:03:20;3.38;;;0.90;;
76063;SDS011;64762;52.006;8.424;2024-03-29T12:05:50;1.90;;;0.70;;
76063;SDS011;64762;52.006;8.424;2024-03-29T12:08:16;4.13;;;0.90;;
76063;SDS011;64762;52.006;8.424;2024-03-29T12:10:41;2.57;;;0.87;;
76063;SDS011;64762;52.006;8.424;2024-03-29T12:13:07;2.72;;;0.90;;
76063;SDS011;64762;52.006;8.424;2024-03-29T12:15:33;2.10;;;0.70;;
76063;SDS011;64762;52.006;8.424;2024-03-29T12:18:07;2.10;;;0.52;;
76063;SDS011;64762;52.006;8.424;2024-03-29T12:20:33;2.90;;;0.88;;
76063;SDS011;64762;52.006;8.424;2024-03-29T12:23:02;2.47;;;0.63;;
76063;SDS011;64762;52.006;8.424;2024-03-29T12:25:28;1.88;;;0.70;;
76063;SDS011;64762;52.006;8.424;2024-03-29T12:27:54;1.15;;;0.50;;
76063;SDS011;64762;52.006;8.424;2024-03-29T12:30:20;1.05;;;0.40;;
76063;SDS011;64762;52.006;8.424;2024-03-29T12:32:46;3.28;;;0.65;;
76063;SDS011;64762;52.006;8.424;2024-03-29T12:35:12;2.10;;;0.80;;
76063;SDS011;64762;52.006;8.424;2024-03-29T12:37:47;1.77;;;0.70;;
76063;SDS011;64762;52.006;8.424;2024-03-29T12:40:18;2.05;;;0.70;;
76063;SDS011;64762;52.006;8.424;2024-03-29T12:42:47;3.55;;;0.90;;
76063;SDS011;64762;52.006;8.424;2024-03-29T12:45:13;2.95;;;1.02;;
76063;SDS011;64762;52.006;8.424;2024-03-29T12:47:39;3.83;;;1.00;;
76063;SDS011;64762;52.006;8.424;2024-03-29T12:50:04;2.07;;;0.90;;
76063;SDS011;64762;52.006;8.424;2024-03-29T12:52:36;1.70;;;0.68;;
76063;SDS011;64762;52.006;8.424;2024-03-29T12:55:06;4.25;;;0.80;;
76063;SDS011;64762;52.006;8.424;2024-03-29T12:57:33;2.33;;;0.80;;
76063;SDS011;64762;52.006;8.424;2024-03-29T12:59:59;2.05;;;0.60;;
76063;SDS011;64762;52.006;8.424;2024-03-29T13:02:24;2.67;;;1.13;;
76063;SDS011;64762;52.006;8.424;2024-03-29T13:04:50;1.93;;;0.70;;
76063;SDS011;64762;52.006;8.424;2024-03-29T13:07:16;2.08;;;0.90;;
76063;SDS011;64762;52.006;8.424;2024-03-29T13:09:41;1.67;;;0.73;;
76063;SDS011;64762;52.006;8.424;2024-03-29T13:12:06;1.47;;;0.60;;
76063;SDS011;64762;52.006;8.424;2024-03-29T13:14:32;2.63;;;0.90;;
76063;SDS011;64762;52.006;8.424;2024-03-29T13:16:58;1.95;;;0.60;;
76063;SDS011;64762;52.006;8.424;2024-03-29T13:19:24;2.57;;;0.63;;
76063;SDS011;64762;52.006;8.424;2024-03-29T13:21:49;3.93;;;0.80;;
76063;SDS011;64762;52.006;8.424;2024-03-29T13:24:14;3.27;;;0.77;;
76063;SDS011;64762;52.006;8.424;2024-03-29T13:26:39;2.20;;;0.70;;
76063;SDS011;64762;52.006;8.424;2024-03-29T13:29:05;1.63;;;0.60;;
76063;SDS011;64762;52.006;8.424;2024-03-29T13:31:30;3.77;;;0.70;;
76063;SDS011;64762;52.006;8.424;2024-03-29T13:33:56;2.22;;;0.70;;
76063;SDS011;64762;52.006;8.424;2024-03-29T13:36:29;3.17;;;0.73;;
76063;SDS011;64762;52.006;8.424;2024-03-29T13:38:55;2.45;;;1.00;;
76063;SDS011;64762;52.006;8.424;2024-03-29T13:41:20;1.90;;;0.67;;
76063;SDS011;64762;52.006;8.424;2024-03-29T13:43:45;2.47;;;0.80;;
76063;SDS011;64762;52.006;8.424;2024-03-29T13:46:11;4.50;;;1.10;;
76063;SDS011;64762;52.006;8.424;2024-03-29T13:48:36;1.73;;;0.73;;
76063;SDS011;64762;52.006;8.424;2024-03-29T13:51:02;3.80;;;0.93;;
76063;SDS011;64762;52.006;8.424;2024-03-29T13:53:27;1.88;;;0.70;;
76063;SDS011;64762;52.006;8.424;2024-03-29T13:55:54;1.92;;;0.70;;
76063;SDS011;64762;52.006;8.424;2024-03-29T13:58:20;1.60;;;0.63;;
76063;SDS011;64762;52.006;8.424;2024-03-29T14:00:45;2.20;;;0.80;;
76063;SDS011;64762;52.006;8.424;2024-03-29T14:03:10;2.90;;;0.70;;
76063;SDS011;64762;52.006;8.424;2024-03-29T14:05:35;3.03;;;0.70;;
76063;SDS011;64762;52.006;8.424;2024-03-29T14:08:02;2.25;;;0.88;;
76063;SDS011;64762;52.006;8.424;2024-03-29T14:10:27;1.83;;;0.77;;
76063;SDS011;64762;52.006;8.424;2024-03-29T14:12:53;2.20;;;0.90;;
76063;SDS011;64762;52.006;8.424;2024-03-29T14:15:19;2.28;;;0.68;;
76063;SDS011;64762;52.006;8.424;2024-03-29T14:17:44;2.27;;;0.97;;
76063;SDS011;64762;52.006;8.424;2024-03-29T14:20:10;2.40;;;0.85;;
76063;SDS011;64762;52.006;8.424;2024-03-29T14:22:35;1.60;;;0.70;;
76063;SDS011;64762;52.006;8.424;2024-03-29T14:25:02;2.80;;;0.82;;
76063;SDS011;64762;52.006;8.424;2024-03-29T14:27:28;1.92;;;0.70;;
76063;SDS011;64762;52.006;8.424;2024-03-29T14:29:53;1.88;;;0.70;;
76063;SDS011;64762;52.006;8.424;2024-03-29T14:32:21;2.37;;;0.80;;
76063;SDS011;64762;52.006;8.424;2024-03-29T14:34:46;2.53;;;0.77;;
76063;SDS011;64762;52.006;8.424;2024-03-29T14:37:12;1.37;;;0.43;;
76063;SDS011;64762;52.006;8.424;2024-03-29T14:39:40;2.17;;;0.70;;
76063;SDS011;64762;52.006;8.424;2024-03-29T14:42:07;2.55;;;1.00;;
76063;SDS011;64762;52.006;8.424;2024-03-29T14:44:34;5.30;;;0.80;;